sensor_id;sensor_type;location;lat;lon;timestamp;P1;durP1;ratioP1;P2;durP2;ratioP2
63342;SDS011;49465;57.664;39.686;2023-12-29T00:01:50;3.35;;;2.40;;
63342;SDS011;49465;57.664;39.686;2023-12-29T00:07:04;2.40;;;2.20;;
63342;SDS011;49465;57.664;39.686;2023-12-29T00:09:41;2.00;;;1.80;;
63342;SDS011;49465;57.664;39.686;2023-12-29T00:12:15;2.95;;;2.22;;
63342;SDS011;49465;57.664;39.686;2023-12-29T00:14:50;3.00;;;1.05;;
63342;SDS011;49465;57.664;39.686;2023-12-29T00:17:28;2.05;;;0.60;;
63342;SDS011;49465;57.664;39.686;2023-12-29T00:20:21;2.30;;;1.95;;
63342;SDS011;49465;57.664;39.686;2023-12-29T00:22:48;2.35;;;2.05;;
63342;SDS011;49465;57.664;39.686;2023-12-29T00:28:26;2.05;;;1.85;;
63342;SDS011;49465;57.664;39.686;2023-12-29T00:33:34;0.30;;;0.30;;
63342;SDS011;49465;57.664;39.686;2023-12-29T00:36:16;2.17;;;1.70;;
63342;SDS011;49465;57.664;39.686;2023-12-29T00:38:49;2.20;;;2.00;;
63342;SDS011;49465;57.664;39.686;2023-12-29T00:41:20;2.00;;;1.80;;
63342;SDS011;49465;57.664;39.686;2023-12-29T00:43:51;1.95;;;1.73;;
63342;SDS011;49465;57.664;39.686;2023-12-29T00:46:26;1.80;;;1.60;;
63342;SDS011;49465;57.664;39.686;2023-12-29T00:51:44;2.80;;;1.95;;
63342;SDS011;49465;57.664;39.686;2023-12-29T00:54:31;2.75;;;1.90;;
63342;SDS011;49465;57.664;39.686;2023-12-29T00:59:42;0.65;;;0.57;;
63342;SDS011;49465;57.664;39.686;2023-12-29T01:05:04;2.00;;;1.80;;
63342;SDS011;49465;57.664;39.686;2023-12-29T01:07:34;1.75;;;1.63;;
63342;SDS011;49465;57.664;39.686;2023-12-29T01:10:06;2.00;;;1.63;;
63342;SDS011;49465;57.664;39.686;2023-12-29T01:12:39;1.95;;;1.75;;
63342;SDS011;49465;57.664;39.686;2023-12-29T01:15:24;2.30;;;1.80;;
63342;SDS011;49465;57.664;39.686;2023-12-29T01:17:54;1.98;;;1.70;;
63342;SDS011;49465;57.664;39.686;2023-12-29T01:20:33;2.08;;;1.80;;
63342;SDS011;49465;57.664;39.686;2023-12-29T01:23:05;2.15;;;1.80;;
63342;SDS011;49465;57.664;39.686;2023-12-29T01:28:28;1.38;;;0.73;;
63342;SDS011;49465;57.664;39.686;2023-12-29T01:31:08;2.03;;;1.80;;
63342;SDS011;49465;57.664;39.686;2023-12-29T01:33:46;2.00;;;1.55;;
63342;SDS011;49465;57.664;39.686;2023-12-29T01:36:27;0.47;;;0.47;;
63342;SDS011;49465;57.664;39.686;2023-12-29T01:39:15;1.83;;;1.63;;
63342;SDS011;49465;57.664;39.686;2023-12-29T01:41:48;1.13;;;0.55;;
63342;SDS011;49465;57.664;39.686;2023-12-29T01:44:33;0.95;;;0.57;;
63342;SDS011;49465;57.664;39.686;2023-12-29T01:47:14;1.70;;;1.50;;
63342;SDS011;49465;57.664;39.686;2023-12-29T01:49:55;2.07;;;1.60;;
63342;SDS011;49465;57.664;39.686;2023-12-29T01:52:45;0.38;;;0.30;;
63342;SDS011;49465;57.664;39.686;2023-12-29T01:55:25;0.75;;;0.68;;
63342;SDS011;49465;57.664;39.686;2023-12-29T01:58:00;2.42;;;1.70;;
63342;SDS011;49465;57.664;39.686;2023-12-29T02:00:35;0.40;;;0.40;;
63342;SDS011;49465;57.664;39.686;2023-12-29T02:03:09;1.60;;;1.50;;
63342;SDS011;49465;57.664;39.686;2023-12-29T02:05:41;1.73;;;1.45;;
63342;SDS011;49465;57.664;39.686;2023-12-29T02:08:30;2.20;;;1.40;;
63342;SDS011;49465;57.664;39.686;2023-12-29T02:13:43;1.60;;;1.50;;
63342;SDS011;49465;57.664;39.686;2023-12-29T02:22:14;1.58;;;1.45;;
63342;SDS011;49465;57.664;39.686;2023-12-29T02:25:05;0.40;;;0.40;;
63342;SDS011;49465;57.664;39.686;2023-12-29T02:27:55;0.30;;;0.30;;
63342;SDS011;49465;57.664;39.686;2023-12-29T02:33:22;1.95;;;1.63;;
63342;SDS011;49465;57.664;39.686;2023-12-29T02:35:57;1.70;;;1.40;;
63342;SDS011;49465;57.664;39.686;2023-12-29T02:38:37;0.45;;;0.45;;
63342;SDS011;49465;57.664;39.686;2023-12-29T02:41:08;1.60;;;1.40;;
63342;SDS011;49465;57.664;39.686;2023-12-29T02:43:44;0.20;;;0.20;;
63342;SDS011;49465;57.664;39.686;2023-12-29T02:46:16;1.77;;;1.40;;
63342;SDS011;49465;57.664;39.686;2023-12-29T02:48:48;1.63;;;1.30;;
63342;SDS011;49465;57.664;39.686;2023-12-29T02:51:19;2.35;;;1.38;;
63342;SDS011;49465;57.664;39.686;2023-12-29T02:53:57;1.23;;;1.13;;
63342;SDS011;49465;57.664;39.686;2023-12-29T02:56:30;1.85;;;1.42;;
63342;SDS011;49465;57.664;39.686;2023-12-29T02:59:03;1.42;;;1.20;;
63342;SDS011;49465;57.664;39.686;2023-12-29T03:01:34;1.45;;;1.27;;
63342;SDS011;49465;57.664;39.686;2023-12-29T03:04:09;1.85;;;1.20;;
63342;SDS011;49465;57.664;39.686;2023-12-29T03:06:42;0.75;;;0.47;;
63342;SDS011;49465;57.664;39.686;2023-12-29T03:09:11;1.95;;;1.20;;
63342;SDS011;49465;57.664;39.686;2023-12-29T03:14:53;1.40;;;1.20;;
63342;SDS011;49465;57.664;39.686;2023-12-29T03:20:02;0.15;;;0.15;;
63342;SDS011;49465;57.664;39.686;2023-12-29T03:22:45;1.80;;;1.27;;
63342;SDS011;49465;57.664;39.686;2023-12-29T03:25:23;0.10;;;0.10;;
63342;SDS011;49465;57.664;39.686;2023-12-29T03:31:10;0.40;;;0.40;;
63342;SDS011;49465;57.664;39.686;2023-12-29T03:33:46;0.57;;;0.57;;
63342;SDS011;49465;57.664;39.686;2023-12-29T03:36:42;1.52;;;1.30;;
63342;SDS011;49465;57.664;39.686;2023-12-29T03:41:38;2.20;;;1.40;;
63342;SDS011;49465;57.664;39.686;2023-12-29T03:44:10;1.55;;;1.40;;
63342;SDS011;49465;57.664;39.686;2023-12-29T03:46:44;0.43;;;0.20;;
63342;SDS011;49465;57.664;39.686;2023-12-29T03:49:17;1.50;;;1.20;;
63342;SDS011;49465;57.664;39.686;2023-12-29T03:51:55;1.73;;;0.50;;
63342;SDS011;49465;57.664;39.686;2023-12-29T03:54:27;1.25;;;1.15;;
63342;SDS011;49465;57.664;39.686;2023-12-29T03:57:04;2.03;;;1.40;;
63342;SDS011;49465;57.664;39.686;2023-12-29T03:59:41;1.20;;;1.10;;
63342;SDS011;49465;57.664;39.686;2023-12-29T04:02:15;3.53;;;1.73;;
63342;SDS011;49465;57.664;39.686;2023-12-29T04:04:50;1.55;;;1.30;;
63342;SDS011;49465;57.664;39.686;2023-12-29T04:07:24;1.98;;;1.38;;
63342;SDS011;49465;57.664;39.686;2023-12-29T04:09:58;1.73;;;1.20;;
63342;SDS011;49465;57.664;39.686;2023-12-29T04:12:33;2.03;;;1.50;;
63342;SDS011;49465;57.664;39.686;2023-12-29T04:15:08;1.65;;;1.38;;
63342;SDS011;49465;57.664;39.686;2023-12-29T04:17:42;2.08;;;1.42;;
63342;SDS011;49465;57.664;39.686;2023-12-29T04:20:13;1.50;;;1.40;;
63342;SDS011;49465;57.664;39.686;2023-12-29T04:22:50;2.63;;;1.40;;
63342;SDS011;49465;57.664;39.686;2023-12-29T04:25:22;0.30;;;0.30;;
63342;SDS011;49465;57.664;39.686;2023-12-29T04:27:53;0.30;;;0.30;;
63342;SDS011;49465;57.664;39.686;2023-12-29T04:33:04;0.25;;;0.25;;
63342;SDS011;49465;57.664;39.686;2023-12-29T04:35:46;1.65;;;0.55;;
63342;SDS011;49465;57.664;39.686;2023-12-29T04:38:19;2.42;;;1.50;;
63342;SDS011;49465;57.664;39.686;2023-12-29T04:40:57;1.70;;;1.45;;
63342;SDS011;49465;57.664;39.686;2023-12-29T04:43:28;0.40;;;0.40;;
63342;SDS011;49465;57.664;39.686;2023-12-29T04:46:06;1.67;;;1.48;;
63342;SDS011;49465;57.664;39.686;2023-12-29T04:48:39;0.20;;;0.20;;
63342;SDS011;49465;57.664;39.686;2023-12-29T04:51:10;1.80;;;1.60;;
63342;SDS011;49465;57.664;39.686;2023-12-29T04:53:48;2.40;;;2.00;;
63342;SDS011;49465;57.664;39.686;2023-12-29T04:56:23;3.55;;;2.47;;
63342;SDS011;49465;57.664;39.686;2023-12-29T04:58:57;2.72;;;2.20;;
63342;SDS011;49465;57.664;39.686;2023-12-29T05:01:34;1.05;;;0.40;;
63342;SDS011;49465;57.664;39.686;2023-12-29T05:04:06;2.92;;;2.13;;
63342;SDS011;49465;57.664;39.686;2023-12-29T05:06:42;1.17;;;0.52;;
63342;SDS011;49465;57.664;39.686;2023-12-29T05:09:14;3.65;;;2.38;;
63342;SDS011;49465;57.664;39.686;2023-12-29T05:14:27;0.30;;;0.30;;
63342;SDS011;49465;57.664;39.686;2023-12-29T05:17:02;2.90;;;2.55;;
63342;SDS011;49465;57.664;39.686;2023-12-29T05:19:33;3.67;;;2.80;;
63342;SDS011;49465;57.664;39.686;2023-12-29T05:22:05;0.20;;;0.20;;
63342;SDS011;49465;57.664;39.686;2023-12-29T05:24:47;1.42;;;0.80;;
63342;SDS011;49465;57.664;39.686;2023-12-29T05:27:19;2.75;;;2.17;;
63342;SDS011;49465;57.664;39.686;2023-12-29T05:29:55;2.65;;;2.08;;
63342;SDS011;49465;57.664;39.686;2023-12-29T05:32:26;3.28;;;2.00;;
63342;SDS011;49465;57.664;39.686;2023-12-29T05:34:58;4.57;;;0.82;;
63342;SDS011;49465;57.664;39.686;2023-12-29T05:37:30;2.60;;;1.92;;
63342;SDS011;49465;57.664;39.686;2023-12-29T05:40:02;3.45;;;2.35;;
63342;SDS011;49465;57.664;39.686;2023-12-29T05:42:32;5.28;;;0.65;;
63342;SDS011;49465;57.664;39.686;2023-12-29T05:45:21;6.30;;;3.35;;
63342;SDS011;49465;57.664;39.686;2023-12-29T05:47:56;3.60;;;2.70;;
63342;SDS011;49465;57.664;39.686;2023-12-29T05:50:28;3.83;;;2.63;;
63342;SDS011;49465;57.664;39.686;2023-12-29T05:53:05;3.13;;;2.70;;
63342;SDS011;49465;57.664;39.686;2023-12-29T05:55:37;3.75;;;2.70;;
63342;SDS011;49465;57.664;39.686;2023-12-29T05:58:19;1.00;;;0.75;;
63342;SDS011;49465;57.664;39.686;2023-12-29T06:00:50;3.03;;;2.67;;
63342;SDS011;49465;57.664;39.686;2023-12-29T06:03:20;1.20;;;0.70;;
63342;SDS011;49465;57.664;39.686;2023-12-29T06:06:03;3.80;;;2.70;;
63342;SDS011;49465;57.664;39.686;2023-12-29T06:08:32;3.17;;;2.70;;
63342;SDS011;49465;57.664;39.686;2023-12-29T06:11:04;3.55;;;2.55;;
63342;SDS011;49465;57.664;39.686;2023-12-29T06:13:36;3.67;;;2.60;;
63342;SDS011;49465;57.664;39.686;2023-12-29T06:16:16;3.88;;;2.58;;
63342;SDS011;49465;57.664;39.686;2023-12-29T06:18:52;3.47;;;2.47;;
63342;SDS011;49465;57.664;39.686;2023-12-29T06:21:24;3.67;;;2.45;;
63342;SDS011;49465;57.664;39.686;2023-12-29T06:26:29;3.70;;;2.58;;
63342;SDS011;49465;57.664;39.686;2023-12-29T06:29:02;1.00;;;0.40;;
63342;SDS011;49465;57.664;39.686;2023-12-29T06:31:39;3.60;;;2.50;;
63342;SDS011;49465;57.664;39.686;2023-12-29T06:34:13;3.65;;;2.72;;
63342;SDS011;49465;57.664;39.686;2023-12-29T06:36:45;4.20;;;2.70;;
63342;SDS011;49465;57.664;39.686;2023-12-29T06:39:11;3.33;;;2.60;;
63342;SDS011;49465;57.664;39.686;2023-12-29T06:41:40;1.42;;;0.77;;
63342;SDS011;49465;57.664;39.686;2023-12-29T06:44:15;1.05;;;0.43;;
63342;SDS011;49465;57.664;39.686;2023-12-29T06:46:52;4.43;;;2.88;;
63342;SDS011;49465;57.664;39.686;2023-12-29T06:49:21;4.57;;;3.28;;
63342;SDS011;49465;57.664;39.686;2023-12-29T06:51:55;5.38;;;3.75;;
63342;SDS011;49465;57.664;39.686;2023-12-29T06:54:25;5.63;;;3.70;;
63342;SDS011;49465;57.664;39.686;2023-12-29T06:57:00;3.38;;;1.15;;
63342;SDS011;49465;57.664;39.686;2023-12-29T06:59:31;2.25;;;0.95;;
63342;SDS011;49465;57.664;39.686;2023-12-29T07:02:03;5.03;;;3.15;;
63342;SDS011;49465;57.664;39.686;2023-12-29T07:04:32;4.43;;;3.05;;
63342;SDS011;49465;57.664;39.686;2023-12-29T07:07:05;4.32;;;2.50;;
63342;SDS011;49465;57.664;39.686;2023-12-29T07:09:31;4.15;;;3.03;;
63342;SDS011;49465;57.664;39.686;2023-12-29T07:12:05;1.58;;;0.90;;
63342;SDS011;49465;57.664;39.686;2023-12-29T07:14:40;3.30;;;2.53;;
63342;SDS011;49465;57.664;39.686;2023-12-29T07:17:12;4.45;;;2.50;;
63342;SDS011;49465;57.664;39.686;2023-12-29T07:19:38;4.07;;;2.67;;
63342;SDS011;49465;57.664;39.686;2023-12-29T07:22:13;3.55;;;2.63;;
63342;SDS011;49465;57.664;39.686;2023-12-29T07:24:39;2.67;;;0.60;;
63342;SDS011;49465;57.664;39.686;2023-12-29T07:27:06;4.22;;;3.05;;
63342;SDS011;49465;57.664;39.686;2023-12-29T07:29:38;3.72;;;2.83;;
63342;SDS011;49465;57.664;39.686;2023-12-29T07:32:10;3.80;;;2.80;;
63342;SDS011;49465;57.664;39.686;2023-12-29T07:34:42;3.83;;;2.70;;
63342;SDS011;49465;57.664;39.686;2023-12-29T07:37:15;4.75;;;3.15;;
63342;SDS011;49465;57.664;39.686;2023-12-29T07:39:48;4.10;;;3.10;;
63342;SDS011;49465;57.664;39.686;2023-12-29T07:42:20;4.25;;;2.95;;
63342;SDS011;49465;57.664;39.686;2023-12-29T07:44:52;2.25;;;0.90;;
63342;SDS011;49465;57.664;39.686;2023-12-29T07:47:21;4.50;;;3.20;;
63342;SDS011;49465;57.664;39.686;2023-12-29T07:49:56;4.32;;;3.20;;
63342;SDS011;49465;57.664;39.686;2023-12-29T07:52:24;4.25;;;3.13;;
63342;SDS011;49465;57.664;39.686;2023-12-29T07:54:51;2.00;;;1.02;;
63342;SDS011;49465;57.664;39.686;2023-12-29T07:57:19;4.57;;;3.33;;
63342;SDS011;49465;57.664;39.686;2023-12-29T07:59:46;5.32;;;3.67;;
63342;SDS011;49465;57.664;39.686;2023-12-29T08:02:19;5.03;;;3.35;;
63342;SDS011;49465;57.664;39.686;2023-12-29T08:04:48;3.60;;;2.70;;
63342;SDS011;49465;57.664;39.686;2023-12-29T08:07:20;3.47;;;2.80;;
63342;SDS011;49465;57.664;39.686;2023-12-29T08:09:52;3.42;;;2.78;;
63342;SDS011;49465;57.664;39.686;2023-12-29T08:12:27;3.63;;;2.55;;
63342;SDS011;49465;57.664;39.686;2023-12-29T08:15:01;1.48;;;0.70;;
63342;SDS011;49465;57.664;39.686;2023-12-29T08:17:37;1.67;;;0.85;;
63342;SDS011;49465;57.664;39.686;2023-12-29T08:20:06;3.63;;;2.33;;
63342;SDS011;49465;57.664;39.686;2023-12-29T08:22:35;3.67;;;2.78;;
63342;SDS011;49465;57.664;39.686;2023-12-29T08:25:02;3.08;;;2.28;;
63342;SDS011;49465;57.664;39.686;2023-12-29T08:27:32;2.80;;;2.20;;
63342;SDS011;49465;57.664;39.686;2023-12-29T08:30:01;10.32;;;8.50;;
63342;SDS011;49465;57.664;39.686;2023-12-29T08:32:28;5.03;;;4.10;;
63342;SDS011;49465;57.664;39.686;2023-12-29T08:34:59;5.05;;;3.97;;
63342;SDS011;49465;57.664;39.686;2023-12-29T08:37:28;2.40;;;1.48;;
63342;SDS011;49465;57.664;39.686;2023-12-29T08:39:54;4.05;;;3.17;;
63342;SDS011;49465;57.664;39.686;2023-12-29T08:42:25;3.10;;;2.40;;
63342;SDS011;49465;57.664;39.686;2023-12-29T08:44:58;3.15;;;2.35;;
63342;SDS011;49465;57.664;39.686;2023-12-29T08:50:00;3.13;;;2.50;;
63342;SDS011;49465;57.664;39.686;2023-12-29T08:52:34;3.22;;;2.17;;
63342;SDS011;49465;57.664;39.686;2023-12-29T08:55:05;2.50;;;2.10;;
63342;SDS011;49465;57.664;39.686;2023-12-29T08:57:35;2.95;;;2.13;;
63342;SDS011;49465;57.664;39.686;2023-12-29T09:00:09;2.30;;;1.80;;
63342;SDS011;49465;57.664;39.686;2023-12-29T09:02:43;3.03;;;1.90;;
63342;SDS011;49465;57.664;39.686;2023-12-29T09:05:13;2.05;;;1.70;;
63342;SDS011;49465;57.664;39.686;2023-12-29T09:07:47;2.10;;;1.90;;
63342;SDS011;49465;57.664;39.686;2023-12-29T09:10:13;1.48;;;1.00;;
63342;SDS011;49465;57.664;39.686;2023-12-29T09:12:42;2.13;;;1.75;;
63342;SDS011;49465;57.664;39.686;2023-12-29T09:15:14;2.08;;;1.70;;
63342;SDS011;49465;57.664;39.686;2023-12-29T09:17:41;2.25;;;1.80;;
63342;SDS011;49465;57.664;39.686;2023-12-29T09:20:13;2.22;;;1.80;;
63342;SDS011;49465;57.664;39.686;2023-12-29T09:22:44;2.25;;;1.98;;
63342;SDS011;49465;57.664;39.686;2023-12-29T09:25:13;2.70;;;2.10;;
63342;SDS011;49465;57.664;39.686;2023-12-29T09:27:45;2.38;;;1.95;;
63342;SDS011;49465;57.664;39.686;2023-12-29T09:30:19;2.65;;;2.08;;
63342;SDS011;49465;57.664;39.686;2023-12-29T09:32:48;1.38;;;0.70;;
63342;SDS011;49465;57.664;39.686;2023-12-29T09:35:17;2.45;;;2.00;;
63342;SDS011;49465;57.664;39.686;2023-12-29T09:37:55;2.38;;;1.95;;
63342;SDS011;49465;57.664;39.686;2023-12-29T09:40:27;3.45;;;2.25;;
63342;SDS011;49465;57.664;39.686;2023-12-29T09:42:56;3.88;;;2.58;;
63342;SDS011;49465;57.664;39.686;2023-12-29T09:45:29;3.85;;;2.58;;
63342;SDS011;49465;57.664;39.686;2023-12-29T09:48:02;6.18;;;3.28;;
63342;SDS011;49465;57.664;39.686;2023-12-29T09:50:30;8.25;;;4.00;;
63342;SDS011;49465;57.664;39.686;2023-12-29T09:53:03;7.38;;;3.92;;
63342;SDS011;49465;57.664;39.686;2023-12-29T09:55:38;9.70;;;4.32;;
63342;SDS011;49465;57.664;39.686;2023-12-29T09:58:13;7.78;;;3.63;;
63342;SDS011;49465;57.664;39.686;2023-12-29T10:00:53;4.28;;;1.20;;
63342;SDS011;49465;57.664;39.686;2023-12-29T10:03:22;8.70;;;4.05;;
63342;SDS011;49465;57.664;39.686;2023-12-29T10:05:54;9.38;;;4.80;;
63342;SDS011;49465;57.664;39.686;2023-12-29T10:08:30;10.15;;;5.40;;
63342;SDS011;49465;57.664;39.686;2023-12-29T10:11:04;8.32;;;4.63;;
63342;SDS011;49465;57.664;39.686;2023-12-29T10:13:35;8.35;;;5.03;;
63342;SDS011;49465;57.664;39.686;2023-12-29T10:21:40;7.80;;;4.55;;
63342;SDS011;49465;57.664;39.686;2023-12-29T10:24:20;4.78;;;3.58;;
63342;SDS011;49465;57.664;39.686;2023-12-29T10:29:28;5.35;;;3.63;;
63342;SDS011;49465;57.664;39.686;2023-12-29T10:31:58;4.40;;;3.25;;
63342;SDS011;49465;57.664;39.686;2023-12-29T10:34:33;4.85;;;3.30;;
63342;SDS011;49465;57.664;39.686;2023-12-29T10:37:03;5.60;;;3.55;;
63342;SDS011;49465;57.664;39.686;2023-12-29T10:39:36;6.55;;;3.25;;
63342;SDS011;49465;57.664;39.686;2023-12-29T10:42:11;4.25;;;3.22;;
63342;SDS011;49465;57.664;39.686;2023-12-29T10:44:43;4.32;;;2.92;;
63342;SDS011;49465;57.664;39.686;2023-12-29T10:47:15;3.75;;;3.30;;
63342;SDS011;49465;57.664;39.686;2023-12-29T10:49:51;4.32;;;3.28;;
63342;SDS011;49465;57.664;39.686;2023-12-29T10:52:31;4.22;;;2.88;;
63342;SDS011;49465;57.664;39.686;2023-12-29T10:55:09;3.38;;;2.95;;
63342;SDS011;49465;57.664;39.686;2023-12-29T10:57:39;3.72;;;3.05;;
63342;SDS011;49465;57.664;39.686;2023-12-29T11:00:08;4.65;;;3.40;;
63342;SDS011;49465;57.664;39.686;2023-12-29T11:02:37;5.80;;;3.70;;
63342;SDS011;49465;57.664;39.686;2023-12-29T11:05:04;4.80;;;3.45;;
63342;SDS011;49465;57.664;39.686;2023-12-29T11:07:38;4.45;;;3.47;;
63342;SDS011;49465;57.664;39.686;2023-12-29T11:10:10;7.45;;;4.25;;
63342;SDS011;49465;57.664;39.686;2023-12-29T11:12:38;6.10;;;4.03;;
63342;SDS011;49465;57.664;39.686;2023-12-29T11:15:07;5.70;;;3.67;;
63342;SDS011;49465;57.664;39.686;2023-12-29T11:17:38;4.32;;;2.90;;
63342;SDS011;49465;57.664;39.686;2023-12-29T11:20:12;4.40;;;2.90;;
63342;SDS011;49465;57.664;39.686;2023-12-29T11:22:46;14.57;;;9.45;;
63342;SDS011;49465;57.664;39.686;2023-12-29T11:25:16;6.18;;;4.35;;
63342;SDS011;49465;57.664;39.686;2023-12-29T11:27:45;4.03;;;3.10;;
63342;SDS011;49465;57.664;39.686;2023-12-29T11:30:19;4.25;;;3.08;;
63342;SDS011;49465;57.664;39.686;2023-12-29T11:33:38;5.65;;;4.80;;
63342;SDS011;49465;57.664;39.686;2023-12-29T11:35:56;7.32;;;5.97;;
63342;SDS011;49465;57.664;39.686;2023-12-29T11:41:13;2.10;;;1.52;;
63342;SDS011;49465;57.664;39.686;2023-12-29T11:44:00;5.88;;;3.97;;
63342;SDS011;49465;57.664;39.686;2023-12-29T11:46:33;4.97;;;3.60;;
63342;SDS011;49465;57.664;39.686;2023-12-29T11:49:13;5.25;;;3.20;;
63342;SDS011;49465;57.664;39.686;2023-12-29T11:51:50;3.78;;;3.00;;
63342;SDS011;49465;57.664;39.686;2023-12-29T11:54:28;5.00;;;3.00;;
63342;SDS011;49465;57.664;39.686;2023-12-29T11:56:59;3.83;;;3.13;;
63342;SDS011;49465;57.664;39.686;2023-12-29T11:59:46;21.70;;;15.23;;
63342;SDS011;49465;57.664;39.686;2023-12-29T12:02:26;11.10;;;8.98;;
63342;SDS011;49465;57.664;39.686;2023-12-29T12:12:55;4.70;;;3.97;;
63342;SDS011;49465;57.664;39.686;2023-12-29T12:15:39;5.47;;;4.40;;
63342;SDS011;49465;57.664;39.686;2023-12-29T12:18:16;5.25;;;4.07;;
63342;SDS011;49465;57.664;39.686;2023-12-29T12:20:50;5.38;;;4.38;;
63342;SDS011;49465;57.664;39.686;2023-12-29T12:23:19;6.63;;;5.07;;
63342;SDS011;49465;57.664;39.686;2023-12-29T12:26:00;7.43;;;5.30;;
63342;SDS011;49465;57.664;39.686;2023-12-29T12:28:34;8.45;;;5.28;;
63342;SDS011;49465;57.664;39.686;2023-12-29T12:31:12;8.38;;;5.78;;
63342;SDS011;49465;57.664;39.686;2023-12-29T12:33:39;8.90;;;6.07;;
63342;SDS011;49465;57.664;39.686;2023-12-29T12:36:20;8.10;;;5.80;;
63342;SDS011;49465;57.664;39.686;2023-12-29T12:39:01;8.90;;;5.60;;
63342;SDS011;49465;57.664;39.686;2023-12-29T12:41:34;7.22;;;5.35;;
63342;SDS011;49465;57.664;39.686;2023-12-29T12:46:50;8.00;;;5.03;;
63342;SDS011;49465;57.664;39.686;2023-12-29T12:49:30;7.43;;;5.20;;
63342;SDS011;49465;57.664;39.686;2023-12-29T12:52:10;9.13;;;5.65;;
63342;SDS011;49465;57.664;39.686;2023-12-29T12:54:42;7.07;;;5.03;;
63342;SDS011;49465;57.664;39.686;2023-12-29T12:57:24;7.35;;;5.40;;
63342;SDS011;49465;57.664;39.686;2023-12-29T12:59:57;8.98;;;5.60;;
63342;SDS011;49465;57.664;39.686;2023-12-29T13:02:28;8.30;;;5.43;;
63342;SDS011;49465;57.664;39.686;2023-12-29T13:05:01;7.53;;;5.25;;
63342;SDS011;49465;57.664;39.686;2023-12-29T13:07:36;7.35;;;5.47;;
63342;SDS011;49465;57.664;39.686;2023-12-29T13:10:11;7.72;;;5.50;;
63342;SDS011;49465;57.664;39.686;2023-12-29T13:12:55;8.15;;;5.45;;
63342;SDS011;49465;57.664;39.686;2023-12-29T13:15:26;2.20;;;1.60;;
63342;SDS011;49465;57.664;39.686;2023-12-29T13:17:57;7.82;;;5.18;;
63342;SDS011;49465;57.664;39.686;2023-12-29T13:20:27;7.95;;;5.35;;
63342;SDS011;49465;57.664;39.686;2023-12-29T13:23:04;7.55;;;5.38;;
63342;SDS011;49465;57.664;39.686;2023-12-29T13:25:50;7.65;;;5.55;;
63342;SDS011;49465;57.664;39.686;2023-12-29T13:28:25;6.30;;;4.60;;
63342;SDS011;49465;57.664;39.686;2023-12-29T13:31:07;6.28;;;4.70;;
63342;SDS011;49465;57.664;39.686;2023-12-29T13:34:03;6.68;;;4.70;;
63342;SDS011;49465;57.664;39.686;2023-12-29T13:39:32;6.72;;;5.07;;
63342;SDS011;49465;57.664;39.686;2023-12-29T13:42:11;6.82;;;4.93;;
63342;SDS011;49465;57.664;39.686;2023-12-29T13:44:50;6.88;;;4.70;;
63342;SDS011;49465;57.664;39.686;2023-12-29T13:47:36;6.38;;;4.68;;
63342;SDS011;49465;57.664;39.686;2023-12-29T13:50:09;7.53;;;5.18;;
63342;SDS011;49465;57.664;39.686;2023-12-29T13:52:50;7.88;;;5.80;;
63342;SDS011;49465;57.664;39.686;2023-12-29T13:55:27;4.35;;;1.75;;
63342;SDS011;49465;57.664;39.686;2023-12-29T13:58:01;8.57;;;5.75;;
63342;SDS011;49465;57.664;39.686;2023-12-29T14:00:46;8.23;;;5.57;;
63342;SDS011;49465;57.664;39.686;2023-12-29T14:03:43;8.90;;;6.13;;
63342;SDS011;49465;57.664;39.686;2023-12-29T14:06:28;11.02;;;6.25;;
63342;SDS011;49465;57.664;39.686;2023-12-29T14:09:34;7.95;;;5.70;;
63342;SDS011;49465;57.664;39.686;2023-12-29T14:12:08;4.63;;;1.77;;
63342;SDS011;49465;57.664;39.686;2023-12-29T14:14:40;8.80;;;5.47;;
63342;SDS011;49465;57.664;39.686;2023-12-29T14:17:19;8.57;;;5.30;;
63342;SDS011;49465;57.664;39.686;2023-12-29T14:19:52;8.02;;;5.10;;
63342;SDS011;49465;57.664;39.686;2023-12-29T14:22:25;3.88;;;1.38;;
63342;SDS011;49465;57.664;39.686;2023-12-29T14:25:01;25.92;;;13.35;;
63342;SDS011;49465;57.664;39.686;2023-12-29T14:27:33;35.28;;;18.38;;
63342;SDS011;49465;57.664;39.686;2023-12-29T14:30:17;19.27;;;4.85;;
63342;SDS011;49465;57.664;39.686;2023-12-29T14:32:46;24.17;;;13.57;;
63342;SDS011;49465;57.664;39.686;2023-12-29T14:35:21;21.98;;;11.85;;
63342;SDS011;49465;57.664;39.686;2023-12-29T14:37:50;22.25;;;12.15;;
63342;SDS011;49465;57.664;39.686;2023-12-29T14:40:24;23.15;;;11.43;;
63342;SDS011;49465;57.664;39.686;2023-12-29T14:43:00;12.65;;;8.15;;
63342;SDS011;49465;57.664;39.686;2023-12-29T14:45:34;17.15;;;9.68;;
63342;SDS011;49465;57.664;39.686;2023-12-29T14:48:12;14.30;;;8.35;;
63342;SDS011;49465;57.664;39.686;2023-12-29T14:50:49;16.05;;;9.05;;
63342;SDS011;49465;57.664;39.686;2023-12-29T14:53:22;19.85;;;10.55;;
63342;SDS011;49465;57.664;39.686;2023-12-29T14:56:01;21.85;;;11.07;;
63342;SDS011;49465;57.664;39.686;2023-12-29T15:01:09;8.65;;;3.08;;
63342;SDS011;49465;57.664;39.686;2023-12-29T15:03:47;16.23;;;10.02;;
63342;SDS011;49465;57.664;39.686;2023-12-29T15:06:23;6.10;;;2.58;;
63342;SDS011;49465;57.664;39.686;2023-12-29T15:09:00;15.02;;;9.18;;
63342;SDS011;49465;57.664;39.686;2023-12-29T15:11:33;14.40;;;8.73;;
63342;SDS011;49465;57.664;39.686;2023-12-29T15:14:05;11.73;;;7.40;;
63342;SDS011;49465;57.664;39.686;2023-12-29T15:16:37;10.50;;;7.82;;
63342;SDS011;49465;57.664;39.686;2023-12-29T15:19:09;9.88;;;7.78;;
63342;SDS011;49465;57.664;39.686;2023-12-29T15:21:44;5.57;;;2.70;;
63342;SDS011;49465;57.664;39.686;2023-12-29T15:24:10;10.93;;;7.97;;
63342;SDS011;49465;57.664;39.686;2023-12-29T15:26:43;4.47;;;2.55;;
63342;SDS011;49465;57.664;39.686;2023-12-29T15:29:17;9.63;;;7.13;;
63342;SDS011;49465;57.664;39.686;2023-12-29T15:31:51;9.40;;;6.97;;
63342;SDS011;49465;57.664;39.686;2023-12-29T15:34:23;8.77;;;5.75;;
63342;SDS011;49465;57.664;39.686;2023-12-29T15:36:52;13.07;;;8.13;;
63342;SDS011;49465;57.664;39.686;2023-12-29T15:39:31;11.63;;;8.75;;
63342;SDS011;49465;57.664;39.686;2023-12-29T15:42:06;12.23;;;9.27;;
63342;SDS011;49465;57.664;39.686;2023-12-29T15:44:43;5.50;;;2.85;;
63342;SDS011;49465;57.664;39.686;2023-12-29T15:47:31;11.82;;;8.02;;
63342;SDS011;49465;57.664;39.686;2023-12-29T15:50:10;10.65;;;8.10;;
63342;SDS011;49465;57.664;39.686;2023-12-29T15:52:50;11.30;;;7.97;;
63342;SDS011;49465;57.664;39.686;2023-12-29T15:55:22;16.17;;;11.30;;
63342;SDS011;49465;57.664;39.686;2023-12-29T15:58:00;26.30;;;18.13;;
63342;SDS011;49465;57.664;39.686;2023-12-29T16:00:30;30.15;;;21.10;;
63342;SDS011;49465;57.664;39.686;2023-12-29T16:03:05;30.23;;;21.48;;
63342;SDS011;49465;57.664;39.686;2023-12-29T16:05:36;24.08;;;17.08;;
63342;SDS011;49465;57.664;39.686;2023-12-29T16:08:05;23.83;;;18.92;;
63342;SDS011;49465;57.664;39.686;2023-12-29T16:10:42;26.98;;;17.90;;
63342;SDS011;49465;57.664;39.686;2023-12-29T16:13:14;9.75;;;4.10;;
63342;SDS011;49465;57.664;39.686;2023-12-29T16:15:51;19.65;;;14.45;;
63342;SDS011;49465;57.664;39.686;2023-12-29T16:18:33;19.17;;;13.90;;
63342;SDS011;49465;57.664;39.686;2023-12-29T16:21:02;19.73;;;13.23;;
63342;SDS011;49465;57.664;39.686;2023-12-29T16:23:33;22.60;;;13.57;;
63342;SDS011;49465;57.664;39.686;2023-12-29T16:26:08;23.58;;;13.85;;
63342;SDS011;49465;57.664;39.686;2023-12-29T16:28:43;17.85;;;12.43;;
63342;SDS011;49465;57.664;39.686;2023-12-29T16:31:20;17.83;;;11.52;;
63342;SDS011;49465;57.664;39.686;2023-12-29T16:33:47;16.55;;;11.32;;